createdAt,value
2023-02-26T00:01:27.940Z,0.80
2023-02-26T00:03:57.303Z,0.85
2023-02-26T00:06:25.461Z,0.93
2023-02-26T00:08:52.728Z,0.70
2023-02-26T00:11:20.246Z,0.70
2023-02-26T00:13:47.377Z,0.80
2023-02-26T00:16:29.566Z,0.70
2023-02-26T00:18:57.466Z,0.70
2023-02-26T00:21:25.671Z,0.80
2023-02-26T00:23:52.727Z,0.90
2023-02-26T00:26:20.134Z,0.80
2023-02-26T00:28:47.078Z,0.80
2023-02-26T00:31:15.726Z,0.90
2023-02-26T00:33:43.191Z,0.80
2023-02-26T00:36:46.067Z,0.70
2023-02-26T00:39:36.816Z,0.80
2023-02-26T00:42:03.893Z,0.70
2023-02-26T00:44:30.975Z,0.70
2023-02-26T00:47:45.675Z,0.70
2023-02-26T00:50:17.400Z,1.00
2023-02-26T00:53:00.998Z,0.90
2023-02-26T00:55:29.177Z,0.98
2023-02-26T00:57:56.493Z,0.90
2023-02-26T01:00:23.509Z,0.75
2023-02-26T01:02:51.043Z,0.70
2023-02-26T01:05:18.201Z,1.05
2023-02-26T01:07:59.554Z,0.90
2023-02-26T01:10:26.624Z,1.00
2023-02-26T01:12:53.699Z,0.90
2023-02-26T01:15:20.723Z,0.70
2023-02-26T01:18:09.812Z,0.93
2023-02-26T01:20:50.888Z,0.80
2023-02-26T01:23:26.918Z,0.85
2023-02-26T01:26:00.602Z,0.90
2023-02-26T01:28:28.017Z,0.70
2023-02-26T01:31:00.598Z,0.55
2023-02-26T01:33:31.943Z,0.73
2023-02-26T01:36:01.115Z,0.90
2023-02-26T01:38:37.018Z,0.95
2023-02-26T01:41:17.387Z,0.80
2023-02-26T01:44:05.380Z,0.90
2023-02-26T01:46:34.975Z,0.82
2023-02-26T01:49:02.012Z,1.10
2023-02-26T01:54:20.105Z,0.70
2023-02-26T01:56:56.011Z,0.80
2023-02-26T01:59:24.676Z,1.00
2023-02-26T02:01:56.812Z,0.82
2023-02-26T02:06:51.350Z,1.00
2023-02-26T02:09:18.121Z,0.95
2023-02-26T02:12:00.708Z,0.80
2023-02-26T02:14:49.168Z,1.00
2023-02-26T02:17:20.010Z,0.80
2023-02-26T02:19:46.535Z,0.90
2023-02-26T02:22:35.710Z,1.00
2023-02-26T02:25:30.402Z,0.90
2023-02-26T02:28:30.869Z,0.93
2023-02-26T02:31:25.237Z,0.65
2023-02-26T02:33:58.641Z,0.90
2023-02-26T02:36:31.084Z,1.00
2023-02-26T02:39:03.252Z,0.85
2023-02-26T02:44:04.054Z,0.90
2023-02-26T02:46:35.161Z,0.85
2023-02-26T02:49:05.432Z,1.02
2023-02-26T02:51:42.252Z,0.80
2023-02-26T02:54:32.329Z,1.00
2023-02-26T02:57:10.891Z,0.93
2023-02-26T02:59:47.342Z,0.70
2023-02-26T03:02:37.061Z,0.80
2023-02-26T03:05:03.977Z,0.90
2023-02-26T03:07:35.116Z,0.80
2023-02-26T03:10:01.856Z,0.90
2023-02-26T03:12:32.709Z,0.90
2023-02-26T03:15:00.649Z,0.80
2023-02-26T03:17:36.281Z,0.88
2023-02-26T03:20:25.276Z,0.90
2023-02-26T03:23:20.319Z,1.00
2023-02-26T03:25:57.243Z,0.88
2023-02-26T03:28:38.180Z,1.05
2023-02-26T03:31:07.770Z,0.80
2023-02-26T03:33:50.487Z,1.17
2023-02-26T03:36:37.031Z,1.20
2023-02-26T03:39:25.851Z,1.00
2023-02-26T03:41:59.205Z,1.00
2023-02-26T03:44:49.358Z,0.82
2023-02-26T03:47:16.708Z,1.27
2023-02-26T03:49:50.423Z,1.00
2023-02-26T03:52:17.276Z,1.13
2023-02-26T03:54:51.259Z,0.80
2023-02-26T03:57:17.979Z,1.00
2023-02-26T03:59:44.606Z,0.98
2023-02-26T04:02:22.432Z,1.00
2023-02-26T04:04:56.927Z,1.20
2023-02-26T04:07:24.010Z,1.10
2023-02-26T04:09:52.001Z,1.00
2023-02-26T04:12:23.528Z,0.85
2023-02-26T04:14:50.586Z,1.00
2023-02-26T04:17:18.765Z,0.80
2023-02-26T04:19:45.680Z,0.95
2023-02-26T04:22:12.481Z,1.10
2023-02-26T04:24:39.236Z,0.90
2023-02-26T04:27:06.112Z,0.90
2023-02-26T04:29:32.701Z,1.00
2023-02-26T04:31:59.693Z,0.80
2023-02-26T04:34:26.681Z,0.95
2023-02-26T04:36:53.417Z,1.10
2023-02-26T04:39:20.090Z,0.85
2023-02-26T04:41:46.685Z,0.77
2023-02-26T04:44:13.287Z,0.90
2023-02-26T04:46:40.177Z,0.90
2023-02-26T04:49:06.951Z,1.10
2023-02-26T04:51:33.966Z,0.95
2023-02-26T04:54:00.618Z,0.82
2023-02-26T04:56:27.728Z,0.80
2023-02-26T04:58:54.498Z,0.88
2023-02-26T05:01:21.149Z,1.13
2023-02-26T05:03:47.784Z,1.10
2023-02-26T05:06:14.380Z,1.08
2023-02-26T05:08:43.036Z,0.90
2023-02-26T05:11:11.077Z,1.10
2023-02-26T05:13:38.328Z,1.00
2023-02-26T05:16:06.129Z,0.90
2023-02-26T05:18:32.905Z,1.15
2023-02-26T05:21:00.822Z,1.10
2023-02-26T05:23:27.636Z,0.90
2023-02-26T05:25:58.328Z,1.20
2023-02-26T05:28:26.072Z,0.98
2023-02-26T05:30:53.080Z,1.08
2023-02-26T05:33:19.781Z,0.82
2023-02-26T05:35:48.035Z,0.93
2023-02-26T05:38:15.425Z,1.08
2023-02-26T05:40:42.037Z,0.82
2023-02-26T05:43:09.006Z,0.80
2023-02-26T05:45:35.752Z,1.08
2023-02-26T05:48:02.340Z,1.00
2023-02-26T05:50:30.458Z,0.80
2023-02-26T05:52:57.458Z,0.90
2023-02-26T05:55:24.395Z,0.73
2023-02-26T05:57:52.113Z,0.90
2023-02-26T06:00:19.075Z,0.95
2023-02-26T06:02:45.748Z,0.80
2023-02-26T06:05:12.528Z,0.93
2023-02-26T06:07:39.254Z,0.73
2023-02-26T06:10:08.559Z,0.90
2023-02-26T06:12:36.329Z,1.10
2023-02-26T06:15:03.162Z,0.90
2023-02-26T06:17:29.812Z,0.98
2023-02-26T06:19:56.501Z,0.73
2023-02-26T06:22:23.211Z,1.05
2023-02-26T06:24:49.887Z,0.90
2023-02-26T06:27:16.498Z,1.10
2023-02-26T06:29:43.530Z,0.80
2023-02-26T06:32:10.693Z,1.00
2023-02-26T06:34:37.341Z,1.05
2023-02-26T06:37:04.054Z,0.80
2023-02-26T06:39:30.669Z,0.85
2023-02-26T06:41:57.330Z,0.90
2023-02-26T06:44:23.974Z,0.93
2023-02-26T06:46:50.581Z,1.00
2023-02-26T06:49:17.463Z,0.90
2023-02-26T06:51:44.134Z,0.88
2023-02-26T06:54:10.741Z,0.88
2023-02-26T06:56:37.407Z,0.90
2023-02-26T06:59:04.125Z,0.82
2023-02-26T07:01:31.985Z,1.00
2023-02-26T07:03:58.860Z,0.80
2023-02-26T07:06:27.667Z,0.80
2023-02-26T07:08:55.371Z,1.10
2023-02-26T07:11:22.633Z,0.90
2023-02-26T07:13:49.341Z,0.85
2023-02-26T07:16:15.960Z,1.00
2023-02-26T07:18:42.798Z,0.75
2023-02-26T07:21:09.500Z,1.00
2023-02-26T07:23:36.198Z,0.82
2023-02-26T07:26:02.937Z,0.75
2023-02-26T07:28:29.586Z,0.90
2023-02-26T07:30:57.329Z,1.00
2023-02-26T07:33:24.987Z,0.80
2023-02-26T07:35:51.637Z,0.90
2023-02-26T07:38:19.670Z,1.10
2023-02-26T07:40:47.040Z,0.85
2023-02-26T07:43:13.644Z,1.10
2023-02-26T07:45:40.288Z,0.90
2023-02-26T07:48:06.865Z,1.05
2023-02-26T07:50:33.823Z,1.00
2023-02-26T07:53:00.587Z,0.85
2023-02-26T07:55:27.654Z,0.70
2023-02-26T07:57:54.466Z,0.80
2023-02-26T08:00:21.613Z,0.80
2023-02-26T08:02:48.336Z,0.80
2023-02-26T08:05:15.022Z,0.93
2023-02-26T08:07:41.610Z,0.85
2023-02-26T08:10:08.872Z,0.80
2023-02-26T08:12:36.574Z,0.85
2023-02-26T08:15:03.927Z,1.10
2023-02-26T08:17:30.552Z,0.77
2023-02-26T08:19:57.192Z,1.08
2023-02-26T08:22:23.793Z,1.10
2023-02-26T08:24:50.745Z,0.77
2023-02-26T08:27:17.785Z,0.70
2023-02-26T08:29:46.320Z,1.00
2023-02-26T08:32:15.596Z,0.95
2023-02-26T08:34:42.522Z,0.80
2023-02-26T08:37:11.543Z,0.85
2023-02-26T08:39:38.970Z,0.80
2023-02-26T08:42:07.449Z,0.77
2023-02-26T08:44:34.273Z,1.00
2023-02-26T08:47:01.027Z,0.80
2023-02-26T08:49:27.655Z,0.90
2023-02-26T08:51:54.537Z,0.90
2023-02-26T08:54:21.326Z,0.82
2023-02-26T08:56:48.054Z,0.80
2023-02-26T08:59:15.094Z,0.70
2023-02-26T09:01:41.824Z,0.93
2023-02-26T09:04:08.519Z,0.95
2023-02-26T09:06:35.148Z,0.65
2023-02-26T09:09:01.877Z,0.90
2023-02-26T09:11:30.557Z,1.15
2023-02-26T09:13:58.954Z,0.73
2023-02-26T09:16:26.485Z,0.80
2023-02-26T09:18:53.572Z,0.80
2023-02-26T09:21:20.252Z,0.70
2023-02-26T09:23:47.206Z,0.75
2023-02-26T09:26:14.711Z,0.85
2023-02-26T09:28:41.898Z,0.80
2023-02-26T09:31:08.856Z,0.80
2023-02-26T09:33:36.424Z,0.70
2023-02-26T09:36:03.575Z,0.68
2023-02-26T09:38:30.216Z,0.50
2023-02-26T09:40:59.989Z,0.82
2023-02-26T09:43:52.290Z,0.60
2023-02-26T09:46:39.375Z,0.63
2023-02-26T09:49:26.194Z,0.77
2023-02-26T09:51:58.527Z,0.70
2023-02-26T09:54:29.805Z,0.77
2023-02-26T09:57:00.000Z,0.80
2023-02-26T09:59:33.150Z,0.80
2023-02-26T10:02:16.986Z,0.75
2023-02-26T10:05:18.047Z,0.82
2023-02-26T10:07:55.872Z,0.98
2023-02-26T10:10:49.464Z,0.80
2023-02-26T10:13:58.593Z,0.73
2023-02-26T10:16:30.200Z,0.65
2023-02-26T10:19:10.911Z,0.77
2023-02-26T10:21:59.933Z,0.80
2023-02-26T10:24:42.422Z,0.82
2023-02-26T10:27:17.602Z,0.60
2023-02-26T10:30:00.805Z,0.68
2023-02-26T10:32:43.257Z,0.80
2023-02-26T10:35:14.365Z,1.00
2023-02-26T10:37:53.073Z,0.75
2023-02-26T10:40:34.663Z,0.80
2023-02-26T10:43:22.429Z,0.70
2023-02-26T10:45:58.448Z,0.90
2023-02-26T10:48:55.338Z,0.75
2023-02-26T10:51:28.387Z,0.60
2023-02-26T10:54:00.750Z,0.93
2023-02-26T10:56:36.388Z,0.75
2023-02-26T10:59:03.064Z,0.65
2023-02-26T11:01:31.333Z,0.57
2023-02-26T11:04:08.563Z,0.77
2023-02-26T11:06:58.477Z,0.80
2023-02-26T11:09:28.923Z,0.70
2023-02-26T11:12:04.083Z,0.60
2023-02-26T11:14:32.824Z,0.80
2023-02-26T11:17:04.691Z,0.75
2023-02-26T11:19:36.522Z,0.70
2023-02-26T11:22:04.420Z,0.65
2023-02-26T11:24:48.643Z,0.95
2023-02-26T11:27:37.209Z,0.98
2023-02-26T11:30:19.275Z,0.63
2023-02-26T11:32:50.950Z,0.52
2023-02-26T11:35:20.224Z,0.60
2023-02-26T11:37:50.125Z,0.80
2023-02-26T11:40:24.324Z,0.65
2023-02-26T11:42:58.282Z,0.52
2023-02-26T11:45:25.320Z,0.80
2023-02-26T11:48:02.185Z,0.50
2023-02-26T11:50:30.359Z,0.80
2023-02-26T11:53:05.240Z,0.80
2023-02-26T11:55:44.507Z,0.70
2023-02-26T11:58:23.697Z,0.60
2023-02-26T12:00:54.483Z,0.80
2023-02-26T12:03:23.959Z,0.80
2023-02-26T12:05:53.183Z,0.70
2023-02-26T12:08:30.526Z,1.00
2023-02-26T12:11:26.744Z,0.60
2023-02-26T12:14:20.625Z,0.60
2023-02-26T12:17:12.159Z,0.75
2023-02-26T12:20:15.243Z,0.70
2023-02-26T12:22:54.680Z,0.60
2023-02-26T12:25:26.942Z,0.88
2023-02-26T12:28:02.606Z,0.70
2023-02-26T12:30:32.303Z,0.70
2023-02-26T12:33:22.727Z,0.80
2023-02-26T12:36:23.709Z,0.85
2023-02-26T12:39:04.630Z,0.88
2023-02-26T12:41:50.036Z,0.80
2023-02-26T12:44:55.520Z,0.60
2023-02-26T12:47:29.572Z,0.70
2023-02-26T12:50:17.946Z,0.82
2023-02-26T12:53:14.236Z,0.80
2023-02-26T12:56:04.333Z,0.57
2023-02-26T12:58:44.286Z,0.82
2023-02-26T13:01:28.233Z,0.80
2023-02-26T13:04:09.852Z,0.88
2023-02-26T13:07:01.206Z,0.68
2023-02-26T13:09:58.101Z,0.60
2023-02-26T13:12:38.147Z,0.90
2023-02-26T13:15:38.017Z,0.50
2023-02-26T13:18:20.765Z,0.70
2023-02-26T13:21:05.304Z,0.75
2023-02-26T13:23:40.314Z,0.73
2023-02-26T13:26:11.865Z,0.82
2023-02-26T13:28:45.680Z,0.65
2023-02-26T13:31:35.408Z,0.60
2023-02-26T13:34:10.320Z,0.60
2023-02-26T13:36:37.313Z,0.60
2023-02-26T13:39:22.516Z,0.80
2023-02-26T13:42:15.842Z,0.70
2023-02-26T13:44:49.195Z,0.60
2023-02-26T13:47:42.790Z,0.60
2023-02-26T13:50:28.229Z,0.57
2023-02-26T13:53:16.474Z,0.68
2023-02-26T13:55:46.402Z,0.70
2023-02-26T13:58:18.635Z,0.73
2023-02-26T14:01:23.412Z,0.70
2023-02-26T14:04:27.875Z,0.55
2023-02-26T14:07:11.139Z,0.75
2023-02-26T14:09:44.703Z,0.70
2023-02-26T14:12:14.078Z,0.70
2023-02-26T14:14:42.943Z,0.60
2023-02-26T14:17:09.759Z,0.57
2023-02-26T14:20:16.946Z,0.95
2023-02-26T14:22:47.304Z,0.70
2023-02-26T14:25:36.097Z,0.52
2023-02-26T14:28:41.764Z,0.60
2023-02-26T14:31:14.792Z,0.70
2023-02-26T14:33:47.549Z,0.60
2023-02-26T14:36:23.548Z,0.60
2023-02-26T14:38:51.528Z,0.52
2023-02-26T14:41:29.587Z,0.43
2023-02-26T14:44:20.838Z,0.60
2023-02-26T14:46:49.986Z,0.60
2023-02-26T14:49:33.551Z,0.50
2023-02-26T14:52:15.400Z,0.60
2023-02-26T14:55:12.218Z,0.40
2023-02-26T14:58:05.688Z,0.65
2023-02-26T15:00:55.984Z,0.60
2023-02-26T15:03:53.394Z,0.55
2023-02-26T15:06:45.038Z,0.40
2023-02-26T15:09:17.886Z,0.40
2023-02-26T15:12:25.936Z,0.50
2023-02-26T15:15:15.099Z,0.70
2023-02-26T15:17:49.265Z,0.50
2023-02-26T15:20:43.808Z,0.50
2023-02-26T15:23:25.053Z,0.50
2023-02-26T15:25:51.831Z,0.60
2023-02-26T15:28:23.353Z,0.50
2023-02-26T15:30:50.593Z,0.45
2023-02-26T15:33:20.391Z,0.40
2023-02-26T15:35:49.696Z,0.60
2023-02-26T15:38:16.353Z,0.60
2023-02-26T15:40:43.556Z,0.40
2023-02-26T15:43:16.081Z,0.50
2023-02-26T15:45:45.112Z,0.70
2023-02-26T15:48:18.728Z,0.40
2023-02-26T15:50:50.190Z,0.60
2023-02-26T15:53:23.662Z,0.50
2023-02-26T15:55:54.824Z,0.60
2023-02-26T15:58:29.663Z,0.47
2023-02-26T16:00:59.999Z,0.68
2023-02-26T16:03:37.823Z,0.60
2023-02-26T16:06:06.352Z,0.50
2023-02-26T16:08:33.108Z,0.60
2023-02-26T16:11:01.398Z,0.60
2023-02-26T16:13:41.814Z,0.60
2023-02-26T16:16:21.383Z,0.60
2023-02-26T16:18:48.379Z,0.43
2023-02-26T16:21:28.421Z,0.50
2023-02-26T16:23:57.753Z,0.50
2023-02-26T16:26:37.844Z,0.47
2023-02-26T16:29:18.592Z,0.60
2023-02-26T16:31:51.151Z,0.52
2023-02-26T16:34:40.416Z,0.57
2023-02-26T16:37:25.827Z,0.60
2023-02-26T16:39:57.288Z,0.40
2023-02-26T16:42:54.968Z,0.50
2023-02-26T16:45:49.404Z,0.50
2023-02-26T16:48:22.557Z,0.47
2023-02-26T16:51:01.162Z,0.60
2023-02-26T16:53:53.802Z,0.50
2023-02-26T16:56:25.514Z,0.52
2023-02-26T16:59:05.418Z,0.65
2023-02-26T17:01:39.245Z,0.47
2023-02-26T17:04:07.334Z,0.50
2023-02-26T17:06:38.885Z,0.60
2023-02-26T17:09:10.143Z,0.70
2023-02-26T17:11:40.413Z,0.50
2023-02-26T17:14:24.110Z,0.60
2023-02-26T17:16:52.001Z,0.50
2023-02-26T17:19:19.304Z,0.50
2023-02-26T17:21:57.484Z,0.60
2023-02-26T17:24:31.546Z,0.60
2023-02-26T17:26:59.373Z,0.38
2023-02-26T17:29:34.952Z,0.50
2023-02-26T17:32:01.624Z,0.50
2023-02-26T17:34:28.343Z,0.47
2023-02-26T17:36:56.981Z,0.50
2023-02-26T17:39:23.568Z,0.45
2023-02-26T17:41:50.221Z,0.60
2023-02-26T17:44:16.816Z,0.57
2023-02-26T17:46:43.502Z,0.40
2023-02-26T17:49:11.516Z,0.55
2023-02-26T17:51:38.151Z,0.47
2023-02-26T17:54:04.826Z,0.55
2023-02-26T17:56:34.207Z,0.32
2023-02-26T17:59:01.750Z,0.70
2023-02-26T18:01:29.011Z,0.40
2023-02-26T18:03:56.999Z,0.60
2023-02-26T18:06:25.029Z,0.50
2023-02-26T18:08:52.312Z,0.35
2023-02-26T18:11:20.462Z,0.50
2023-02-26T18:13:47.358Z,0.57
2023-02-26T18:16:19.116Z,0.55
2023-02-26T18:18:45.817Z,0.50
2023-02-26T18:21:13.055Z,0.40
2023-02-26T18:23:39.979Z,0.50
2023-02-26T18:26:06.953Z,0.50
2023-02-26T18:28:33.673Z,0.60
2023-02-26T18:31:00.548Z,0.40
2023-02-26T18:33:27.213Z,0.32
2023-02-26T18:35:56.763Z,0.50
2023-02-26T18:38:26.494Z,0.50
2023-02-26T18:40:54.084Z,0.57
2023-02-26T18:43:21.125Z,0.55
2023-02-26T18:45:50.488Z,0.57
2023-02-26T18:48:19.489Z,0.50
2023-02-26T18:50:47.612Z,0.55
2023-02-26T18:53:16.983Z,0.50
2023-02-26T18:55:44.143Z,0.60
2023-02-26T18:58:11.533Z,0.52
2023-02-26T19:00:38.141Z,0.60
2023-02-26T19:03:04.774Z,0.68
2023-02-26T19:05:31.439Z,0.60
2023-02-26T19:07:58.106Z,0.65
2023-02-26T19:10:24.895Z,0.80
2023-02-26T19:12:51.603Z,0.75
2023-02-26T19:15:18.424Z,0.45
2023-02-26T19:17:45.181Z,0.63
2023-02-26T19:20:13.038Z,0.60
2023-02-26T19:22:40.369Z,0.60
2023-02-26T19:25:07.756Z,0.65
2023-02-26T19:27:34.361Z,0.50
2023-02-26T19:30:01.011Z,0.50
2023-02-26T19:32:28.404Z,0.60
2023-02-26T19:34:55.233Z,0.68
2023-02-26T19:37:22.176Z,0.50
2023-02-26T19:39:48.777Z,0.45
2023-02-26T19:42:15.665Z,0.40
2023-02-26T19:44:42.280Z,0.55
2023-02-26T19:47:08.865Z,0.52
2023-02-26T19:49:35.519Z,0.70
2023-02-26T19:52:02.165Z,0.63
2023-02-26T19:54:28.902Z,0.47
2023-02-26T19:56:55.588Z,0.50
2023-02-26T19:59:22.270Z,0.52
2023-02-26T20:01:49.619Z,0.55
2023-02-26T20:04:17.755Z,0.60
2023-02-26T20:06:44.968Z,0.55
2023-02-26T20:09:12.734Z,0.50
2023-02-26T20:11:39.638Z,0.40
2023-02-26T20:14:06.897Z,0.68
2023-02-26T20:16:33.552Z,0.50
2023-02-26T20:19:00.210Z,0.30
2023-02-26T20:21:27.182Z,0.60
2023-02-26T20:23:54.552Z,0.50
2023-02-26T20:26:21.287Z,0.50
2023-02-26T20:28:48.289Z,0.55
2023-02-26T20:31:15.154Z,0.52
2023-02-26T20:33:41.916Z,0.70
2023-02-26T20:36:10.031Z,0.60
2023-02-26T20:38:37.065Z,0.50
2023-02-26T20:41:04.369Z,0.57
2023-02-26T20:43:31.012Z,0.40
2023-02-26T20:45:57.781Z,0.55
2023-02-26T20:48:25.221Z,0.55
2023-02-26T20:50:53.595Z,0.40
2023-02-26T20:53:23.351Z,0.50
2023-02-26T20:55:50.197Z,0.70
2023-02-26T20:58:17.202Z,0.60
2023-02-26T21:00:44.139Z,0.40
2023-02-26T21:03:10.924Z,0.47
2023-02-26T21:05:38.586Z,0.50
2023-02-26T21:08:05.487Z,0.50
2023-02-26T21:10:32.724Z,0.50
2023-02-26T21:12:59.763Z,0.60
2023-02-26T21:15:26.559Z,0.60
2023-02-26T21:17:53.276Z,0.60
2023-02-26T21:20:22.112Z,0.43
2023-02-26T21:22:49.442Z,0.43
2023-02-26T21:25:16.607Z,0.47
2023-02-26T21:27:43.636Z,0.60
2023-02-26T21:30:12.369Z,0.40
2023-02-26T21:32:39.860Z,0.57
2023-02-26T21:35:08.117Z,0.50
2023-02-26T21:37:35.098Z,0.30
2023-02-26T21:40:01.783Z,0.40
2023-02-26T21:42:28.872Z,0.60
2023-02-26T21:47:22.027Z,0.50
2023-02-26T21:49:48.676Z,0.63
2023-02-26T21:52:15.537Z,0.70
2023-02-26T21:54:42.334Z,0.70
2023-02-26T21:57:10.873Z,0.60
2023-02-26T21:59:37.878Z,0.60
2023-02-26T22:02:04.992Z,0.70
2023-02-26T22:04:33.727Z,0.70
2023-02-26T22:07:00.670Z,0.88
2023-02-26T22:09:27.556Z,0.60
2023-02-26T22:11:54.168Z,0.57
2023-02-26T22:14:20.766Z,0.60
2023-02-26T22:16:47.537Z,0.70
2023-02-26T22:19:14.327Z,0.52
2023-02-26T22:21:40.951Z,0.60
2023-02-26T22:24:07.904Z,0.52
2023-02-26T22:26:35.270Z,0.75
2023-02-26T22:29:02.026Z,0.68
2023-02-26T22:31:29.600Z,0.60
2023-02-26T22:33:57.307Z,0.50
2023-02-26T22:36:24.578Z,0.70
2023-02-26T22:38:51.246Z,0.57
2023-02-26T22:41:17.834Z,0.65
2023-02-26T22:43:44.426Z,0.50
2023-02-26T22:46:11.213Z,0.70
2023-02-26T22:48:37.885Z,0.60
2023-02-26T22:51:04.595Z,0.75
2023-02-26T22:53:31.837Z,0.52
2023-02-26T22:55:58.606Z,0.60
2023-02-26T22:58:25.252Z,0.50
2023-02-26T23:00:59.446Z,0.55
2023-02-26T23:03:26.407Z,0.70
2023-02-26T23:05:53.340Z,0.50
2023-02-26T23:08:20.378Z,0.60
2023-02-26T23:10:46.950Z,0.52
2023-02-26T23:13:13.663Z,0.40
2023-02-26T23:15:40.385Z,0.60
2023-02-26T23:18:07.076Z,0.75
2023-02-26T23:20:33.741Z,0.63
2023-02-26T23:23:00.563Z,0.52
2023-02-26T23:25:28.748Z,0.60
2023-02-26T23:27:55.437Z,0.82
2023-02-26T23:30:22.165Z,0.60
2023-02-26T23:32:49.038Z,0.57
2023-02-26T23:35:15.760Z,0.60
2023-02-26T23:37:42.379Z,0.68
2023-02-26T23:40:10.155Z,0.50
2023-02-26T23:42:36.840Z,0.77
2023-02-26T23:45:03.740Z,0.47
2023-02-26T23:47:30.373Z,0.57
2023-02-26T23:49:57.040Z,0.55
2023-02-26T23:52:25.566Z,0.68
2023-02-26T23:54:54.368Z,0.55
2023-02-26T23:57:21.116Z,0.65
2023-02-26T23:59:47.807Z,0.40
